Terminal Aerodrome Forecast
Issued by NWS

Home | Current Version | Previous Version | Text Only | Print | Product List | Glossary On
Versions: 1 2 3 4 5 6 7 8 9 10 11 12 13 14 15 16 17 18 19 20 21 22 23 24 25 26 27
000
FTUS42 KJAX 010524
TAFCRG
TAF
KCRG 010524Z 0106/0206 02009G15KT 3SM -RA BR OVC003
     FM010800 02009KT 2SM -RA BR OVC002
     FM011400 05008KT 3SM -RA BR OVC004
     FM011800 09007KT 4SM BR OVC007=

USA.gov is the U.S. government's official web portal to all federal, state and local government web resources and services.